Time;durP1;ratioP1;P1;durP2;ratioP2;P2;SDS_P1;SDS_P2;PMS_P1;PMS_P2;Temp;Humidity;BMP_temperature;BMP_pressure;BME280_temperature;BME280_humidity;BME280_pressure;Samples;Min_cycle;Max_cycle;Signal;HPM_P1;HPM_P2
2023/04/03 00:00:20;;;;;;;3.60;3.08;;;;;;;;;;5074718;28;20052;-62
2023/04/03 00:02:45;;;;;;;5.38;3.65;;;;;;;;;;5074864;28;20107;-61
2023/04/03 00:05:11;;;;;;;4.00;3.05;;;;;;;;;;5074805;28;20132;-61
2023/04/03 00:07:37;;;;;;;3.60;3.28;;;;;;;;;;5074853;28;20582;-60
2023/04/03 00:10:02;;;;;;;3.45;3.10;;;;;;;;;;5074832;28;20028;-62
2023/04/03 00:12:28;;;;;;;3.80;3.35;;;;;;;;;;5074652;28;20439;-63
2023/04/03 00:14:54;;;;;;;3.58;3.28;;;;;;;;;;5074637;28;20376;-60
2023/04/03 00:17:19;;;;;;;3.70;3.05;;;;;;;;;;5074644;28;20399;-60
2023/04/03 00:19:45;;;;;;;3.40;3.10;;;;;;;;;;5074275;28;20508;-59
2023/04/03 00:22:11;;;;;;;3.13;2.90;;;;;;;;;;5073201;28;20021;-60
2023/04/03 00:24:36;;;;;;;3.63;2.88;;;;;;;;;;5074132;28;20054;-60
2023/04/03 00:27:02;;;;;;;3.42;3.10;;;;;;;;;;5074126;28;20020;-61
2023/04/03 00:29:27;;;;;;;3.83;3.17;;;;;;;;;;5074134;28;20107;-60
2023/04/03 00:31:53;;;;;;;3.40;3.10;;;;;;;;;;5074021;28;20033;-60
2023/04/03 00:34:19;;;;;;;3.22;2.92;;;;;;;;;;5073999;28;20032;-60
2023/04/03 00:36:45;;;;;;;3.30;3.00;;;;;;;;;;5073827;28;20032;-60
2023/04/03 00:39:10;;;;;;;2.95;2.70;;;;;;;;;;5073892;28;20017;-62
2023/04/03 00:41:36;;;;;;;3.63;2.92;;;;;;;;;;5074073;28;20028;-60
2023/04/03 00:44:22;;;;;;;3.00;2.70;;;;;;;;;;5072508;28;20047;-60
2023/04/03 00:46:50;;;;;;;3.35;2.85;;;;;;;;;;5073632;28;20055;-63
2023/04/03 00:49:16;;;;;;;4.47;3.30;;;;;;;;;;5073496;28;20488;-60
2023/04/03 00:51:42;;;;;;;2.97;2.67;;;;;;;;;;5073638;28;20078;-60
2023/04/03 00:54:08;;;;;;;3.80;3.20;;;;;;;;;;5073823;28;20036;-60
2023/04/03 00:56:36;;;;;;;3.35;3.05;;;;;;;;;;5073480;28;20043;-60
2023/04/03 00:59:07;;;;;;;3.17;2.88;;;;;;;;;;5073513;28;20082;-60
2023/04/03 01:01:33;;;;;;;3.95;2.78;;;;;;;;;;5073459;28;20107;-62
2023/04/03 01:03:59;;;;;;;4.05;2.88;;;;;;;;;;5073366;28;20606;-61
2023/04/03 01:06:30;;;;;;;3.22;2.92;;;;;;;;;;5073522;28;20020;-60
2023/04/03 01:08:56;;;;;;;4.63;2.90;;;;;;;;;;5073432;28;20353;-60
2023/04/03 01:11:22;;;;;;;4.47;3.00;;;;;;;;;;5073219;28;20027;-60
2023/04/03 01:13:49;;;;;;;3.10;2.80;;;;;;;;;;5073213;28;20024;-61
2023/04/03 01:16:14;;;;;;;3.28;2.97;;;;;;;;;;5073106;28;20469;-60
2023/04/03 01:18:41;;;;;;;3.35;3.05;;;;;;;;;;5073071;28;20027;-61
2023/04/03 01:21:16;;;;;;;3.45;2.88;;;;;;;;;;5071772;28;20457;-60
2023/04/03 01:24:18;;;;;;;3.40;2.80;;;;;;;;;;5072876;28;20033;-61
2023/04/03 01:26:44;;;;;;;3.22;2.63;;;;;;;;;;5073299;28;20028;-60
2023/04/03 01:29:11;;;;;;;3.28;2.92;;;;;;;;;;5072881;28;20487;-60
2023/04/03 01:32:12;;;;;;;5.05;2.85;;;;;;;;;;5073167;28;20028;-60
2023/04/03 01:34:37;;;;;;;3.08;2.78;;;;;;;;;;4991272;28;20037;-60
2023/04/03 01:37:03;;;;;;;2.92;2.72;;;;;;;;;;5055930;28;20037;-61
2023/04/03 01:39:29;;;;;;;3.25;2.63;;;;;;;;;;5073051;28;20081;-60
2023/04/03 01:41:54;;;;;;;3.85;2.95;;;;;;;;;;5072826;28;20021;-60
2023/04/03 01:44:20;;;;;;;3.65;2.83;;;;;;;;;;5072494;28;20029;-60
2023/04/03 01:46:46;;;;;;;3.15;2.83;;;;;;;;;;5072697;28;20085;-61
2023/04/03 01:49:11;;;;;;;3.10;2.80;;;;;;;;;;5072642;28;20055;-60
2023/04/03 01:51:37;;;;;;;3.00;2.70;;;;;;;;;;5072626;28;20427;-61
2023/04/03 01:54:03;;;;;;;3.08;2.78;;;;;;;;;;5072589;28;20032;-60
2023/04/03 01:56:29;;;;;;;3.33;2.92;;;;;;;;;;5072593;28;20047;-60
2023/04/03 01:58:54;;;;;;;3.00;2.80;;;;;;;;;;5072093;28;20468;-60
2023/04/03 02:01:21;;;;;;;3.53;2.55;;;;;;;;;;5072856;28;20375;-60
2023/04/03 02:03:46;;;;;;;3.22;2.92;;;;;;;;;;5072317;28;20032;-61
2023/04/03 02:06:12;;;;;;;4.10;3.05;;;;;;;;;;5072551;28;20024;-60
2023/04/03 02:08:37;;;;;;;4.22;3.13;;;;;;;;;;5072719;28;20484;-60
2023/04/03 02:11:03;;;;;;;3.63;2.70;;;;;;;;;;5072653;28;20354;-60
2023/04/03 02:13:28;;;;;;;3.17;2.85;;;;;;;;;;5072338;28;20364;-60
2023/04/03 02:15:54;;;;;;;3.10;2.70;;;;;;;;;;5072401;28;20027;-62
2023/04/03 02:18:19;;;;;;;3.45;2.78;;;;;;;;;;5072199;28;20032;-60
2023/04/03 02:20:47;;;;;;;3.58;3.10;;;;;;;;;;5072348;28;20031;-60
2023/04/03 02:23:13;;;;;;;4.55;2.95;;;;;;;;;;5072235;28;20025;-60
2023/04/03 02:25:38;;;;;;;3.08;2.78;;;;;;;;;;5072465;28;20036;-61
2023/04/03 02:28:04;;;;;;;3.47;3.10;;;;;;;;;;5072195;28;20552;-62
2023/04/03 02:30:30;;;;;;;3.83;3.10;;;;;;;;;;5072227;28;20116;-60
2023/04/03 02:32:55;;;;;;;2.85;2.63;;;;;;;;;;5072167;28;20475;-61
2023/04/03 02:35:21;;;;;;;3.50;2.70;;;;;;;;;;5072472;28;20032;-60
2023/04/03 02:37:47;;;;;;;3.33;2.80;;;;;;;;;;5070861;28;20376;-60
2023/04/03 02:40:12;;;;;;;3.20;2.90;;;;;;;;;;5072180;28;20028;-62
2023/04/03 02:42:38;;;;;;;2.75;2.53;;;;;;;;;;5072331;28;20039;-61
2023/04/03 02:45:04;;;;;;;3.50;3.00;;;;;;;;;;5072028;28;20369;-61
2023/04/03 02:47:30;;;;;;;3.30;3.00;;;;;;;;;;5072270;28;20082;-60
2023/04/03 02:49:55;;;;;;;3.30;3.00;;;;;;;;;;5071914;28;20530;-60
2023/04/03 02:52:21;;;;;;;3.20;2.70;;;;;;;;;;5070998;28;20025;-61
2023/04/03 02:54:47;;;;;;;3.20;2.63;;;;;;;;;;5072302;28;20074;-60
2023/04/03 02:57:12;;;;;;;3.55;2.97;;;;;;;;;;5072147;28;20365;-60
2023/04/03 02:59:40;;;;;;;4.35;2.83;;;;;;;;;;5072209;28;20602;-61
2023/04/03 03:02:10;;;;;;;3.10;2.80;;;;;;;;;;5072203;28;20039;-62
2023/04/03 03:04:36;;;;;;;3.30;2.90;;;;;;;;;;5071860;28;20028;-60
2023/04/03 03:07:02;;;;;;;3.00;2.72;;;;;;;;;;5071855;28;20473;-60
2023/04/03 03:09:29;;;;;;;4.07;3.15;;;;;;;;;;5072179;28;20029;-61
2023/04/03 03:11:55;;;;;;;3.50;3.20;;;;;;;;;;5075466;28;20032;-61
2023/04/03 03:14:20;;;;;;;3.10;2.85;;;;;;;;;;5075532;28;20037;-61
2023/04/03 03:16:46;;;;;;;3.28;2.97;;;;;;;;;;5075366;28;20024;-60
2023/04/03 03:19:11;;;;;;;3.17;2.88;;;;;;;;;;5075392;28;20025;-61
2023/04/03 03:21:37;;;;;;;3.10;2.80;;;;;;;;;;5075342;28;20032;-60
2023/04/03 03:24:03;;;;;;;2.80;2.60;;;;;;;;;;5075275;28;20043;-60
2023/04/03 03:26:28;;;;;;;3.17;2.88;;;;;;;;;;5075530;28;20078;-60
2023/04/03 03:28:54;;;;;;;3.42;2.65;;;;;;;;;;5075473;28;20070;-60
2023/04/03 03:31:20;;;;;;;2.63;2.42;;;;;;;;;;5075145;28;20384;-60
2023/04/03 03:33:46;;;;;;;3.63;2.90;;;;;;;;;;5075183;28;20027;-61
2023/04/03 03:36:12;;;;;;;3.20;2.90;;;;;;;;;;5075055;28;20024;-61
2023/04/03 03:38:37;;;;;;;2.92;2.72;;;;;;;;;;5075083;28;20152;-60
2023/04/03 03:41:03;;;;;;;3.33;3.03;;;;;;;;;;5075076;28;20075;-60
2023/04/03 03:43:28;;;;;;;3.17;2.88;;;;;;;;;;5074960;28;20043;-62
2023/04/03 03:45:54;;;;;;;3.25;2.90;;;;;;;;;;5074886;28;20077;-62
2023/04/03 03:48:20;;;;;;;2.78;2.47;;;;;;;;;;5074963;28;20113;-60
2023/04/03 03:50:47;;;;;;;2.80;2.60;;;;;;;;;;5074724;28;20483;-60
2023/04/03 03:53:12;;;;;;;2.97;2.75;;;;;;;;;;5074899;28;20024;-61
2023/04/03 03:55:38;;;;;;;3.22;2.92;;;;;;;;;;5075026;28;20036;-61
2023/04/03 03:58:04;;;;;;;3.20;2.90;;;;;;;;;;5074986;28;20499;-60
2023/04/03 04:00:30;;;;;;;3.05;2.75;;;;;;;;;;5074947;28;20020;-60
2023/04/03 04:02:56;;;;;;;3.08;2.72;;;;;;;;;;5074842;28;20020;-63
2023/04/03 04:05:22;;;;;;;2.92;2.67;;;;;;;;;;5074481;28;20472;-62
2023/04/03 04:07:48;;;;;;;3.35;3.05;;;;;;;;;;5074552;28;20032;-60
2023/04/03 04:10:14;;;;;;;3.00;2.70;;;;;;;;;;5074380;28;20025;-61
2023/04/03 04:12:39;;;;;;;3.30;3.00;;;;;;;;;;5074401;28;20052;-60
2023/04/03 04:15:05;;;;;;;2.90;2.70;;;;;;;;;;5074275;28;20052;-61
2023/04/03 04:17:31;;;;;;;3.50;2.63;;;;;;;;;;5074228;28;20031;-60
2023/04/03 04:19:57;;;;;;;2.97;2.67;;;;;;;;;;5074209;28;20036;-61
2023/04/03 04:22:22;;;;;;;2.78;2.55;;;;;;;;;;5073432;28;20025;-61
2023/04/03 04:24:48;;;;;;;2.80;2.60;;;;;;;;;;5074340;28;20039;-61
2023/04/03 04:27:15;;;;;;;2.95;2.75;;;;;;;;;;5074097;28;20053;-62
2023/04/03 04:29:40;;;;;;;3.67;2.70;;;;;;;;;;5073940;28;20142;-60
2023/04/03 04:32:06;;;;;;;2.90;2.60;;;;;;;;;;5074044;28;20052;-60
2023/04/03 04:34:32;;;;;;;2.95;2.67;;;;;;;;;;5074020;28;20036;-61
2023/04/03 04:36:57;;;;;;;3.00;2.78;;;;;;;;;;5073934;28;20623;-61
2023/04/03 04:39:23;;;;;;;3.10;2.80;;;;;;;;;;5073928;28;20051;-61
2023/04/03 04:41:49;;;;;;;2.72;2.38;;;;;;;;;;5074125;28;20036;-61
2023/04/03 04:44:15;;;;;;;3.22;2.60;;;;;;;;;;5073951;28;20029;-62
2023/04/03 04:46:40;;;;;;;3.13;2.83;;;;;;;;;;5073725;28;20131;-60
2023/04/03 04:49:06;;;;;;;2.58;2.38;;;;;;;;;;5073617;28;20047;-61
2023/04/03 04:51:31;;;;;;;3.47;2.88;;;;;;;;;;5073725;28;20059;-63
2023/04/03 04:53:57;;;;;;;4.72;2.88;;;;;;;;;;5073517;28;20098;-60
2023/04/03 04:56:23;;;;;;;3.40;3.10;;;;;;;;;;5073454;28;20330;-61
2023/04/03 04:58:48;;;;;;;3.20;2.88;;;;;;;;;;5073327;28;20086;-60
2023/04/03 05:01:14;;;;;;;2.97;2.70;;;;;;;;;;5073379;28;20021;-61
2023/04/03 05:03:40;;;;;;;2.80;2.55;;;;;;;;;;5073186;28;20073;-63
2023/04/03 05:06:05;;;;;;;3.20;2.90;;;;;;;;;;5073203;28;20029;-62
2023/04/03 05:08:32;;;;;;;2.72;2.53;;;;;;;;;;5073194;28;20028;-61
2023/04/03 05:10:58;;;;;;;2.88;2.67;;;;;;;;;;5073109;28;20036;-61
2023/04/03 05:13:23;;;;;;;2.97;2.60;;;;;;;;;;5073395;28;20025;-63
2023/04/03 05:15:49;;;;;;;2.97;2.72;;;;;;;;;;5071708;28;20512;-62
2023/04/03 05:18:15;;;;;;;2.72;2.50;;;;;;;;;;5072961;28;20031;-62
2023/04/03 05:20:40;;;;;;;2.92;2.72;;;;;;;;;;5073020;28;20039;-64
2023/04/03 05:23:06;;;;;;;2.60;2.40;;;;;;;;;;5068712;28;20028;-62
2023/04/03 05:25:32;;;;;;;2.70;2.50;;;;;;;;;;5072890;28;20104;-60
2023/04/03 05:27:57;;;;;;;3.40;2.90;;;;;;;;;;5072839;28;20025;-60
2023/04/03 05:30:23;;;;;;;3.28;2.97;;;;;;;;;;5072882;28;20020;-60
2023/04/03 05:32:49;;;;;;;2.80;2.60;;;;;;;;;;5072985;28;20032;-60
2023/04/03 05:35:14;;;;;;;2.58;2.38;;;;;;;;;;5072735;28;20056;-61
2023/04/03 05:37:40;;;;;;;2.70;2.50;;;;;;;;;;5072938;28;20025;-60
2023/04/03 05:40:07;;;;;;;4.47;2.88;;;;;;;;;;5072980;28;20033;-60
2023/04/03 05:42:32;;;;;;;3.30;3.00;;;;;;;;;;5072519;28;20028;-61
2023/04/03 05:44:58;;;;;;;3.22;2.92;;;;;;;;;;5072767;28;20029;-61
2023/04/03 05:47:23;;;;;;;6.70;2.63;;;;;;;;;;5072503;28;20036;-62
2023/04/03 05:49:49;;;;;;;2.85;2.65;;;;;;;;;;5072132;28;20075;-61
2023/04/03 05:52:35;;;;;;;3.00;2.80;;;;;;;;;;5072805;28;20412;-60
2023/04/03 05:55:00;;;;;;;3.08;2.70;;;;;;;;;;5072428;28;20119;-61
2023/04/03 05:57:26;;;;;;;2.70;2.50;;;;;;;;;;5072380;28;20112;-62
2023/04/03 05:59:51;;;;;;;3.20;2.78;;;;;;;;;;5072407;28;20020;-60
2023/04/03 06:02:20;;;;;;;3.67;2.83;;;;;;;;;;5071069;28;20031;-63
2023/04/03 06:04:47;;;;;;;3.30;3.00;;;;;;;;;;5072298;28;20110;-63
2023/04/03 06:07:15;;;;;;;2.50;2.30;;;;;;;;;;5072199;28;20017;-64
2023/04/03 06:09:42;;;;;;;3.55;2.72;;;;;;;;;;5072273;28;20158;-62
2023/04/03 06:12:08;;;;;;;2.85;2.55;;;;;;;;;;5072199;28;20024;-61
2023/04/03 06:14:33;;;;;;;3.05;2.67;;;;;;;;;;5072531;28;20082;-63
2023/04/03 06:17:02;;;;;;;3.13;2.83;;;;;;;;;;5072202;28;20423;-64
2023/04/03 06:19:28;;;;;;;2.97;2.67;;;;;;;;;;5070880;28;20025;-65
2023/04/03 06:21:54;;;;;;;3.08;2.78;;;;;;;;;;5072167;28;20506;-65
2023/04/03 06:24:22;;;;;;;3.00;2.78;;;;;;;;;;5072136;28;20066;-65
2023/04/03 06:26:48;;;;;;;3.28;2.50;;;;;;;;;;5072040;28;20048;-64
2023/04/03 06:29:14;;;;;;;3.15;2.85;;;;;;;;;;5071958;28;20074;-64
2023/04/03 06:31:40;;;;;;;2.70;2.50;;;;;;;;;;5072165;28;20021;-61
2023/04/03 06:34:07;;;;;;;4.07;3.05;;;;;;;;;;5079419;28;20028;-60
2023/04/03 06:36:35;;;;;;;2.53;2.33;;;;;;;;;;5091287;28;20035;-61
2023/04/03 06:39:04;;;;;;;3.28;2.83;;;;;;;;;;5092261;28;20028;-61
2023/04/03 06:41:30;;;;;;;2.88;2.58;;;;;;;;;;5092252;28;20041;-64
2023/04/03 06:43:57;;;;;;;3.00;2.70;;;;;;;;;;5092151;28;20024;-62
2023/04/03 06:46:23;;;;;;;2.58;2.38;;;;;;;;;;5095784;28;20383;-61
2023/04/03 06:48:49;;;;;;;2.80;2.60;;;;;;;;;;5096321;28;20024;-61
2023/04/03 06:51:24;;;;;;;2.65;2.45;;;;;;;;;;5084735;28;20494;-63
2023/04/03 06:53:51;;;;;;;2.85;2.50;;;;;;;;;;5075823;28;20025;-61
2023/04/03 06:56:17;;;;;;;3.00;2.67;;;;;;;;;;5073153;28;20029;-61
2023/04/03 06:58:43;;;;;;;2.60;2.40;;;;;;;;;;5069234;28;20039;-60
2023/04/03 07:01:11;;;;;;;2.80;2.60;;;;;;;;;;5070102;28;20016;-62
2023/04/03 07:03:38;;;;;;;2.67;2.47;;;;;;;;;;5076112;28;20484;-61
2023/04/03 07:06:07;;;;;;;2.72;2.53;;;;;;;;;;5068745;28;20029;-63
2023/04/03 07:08:33;;;;;;;3.72;2.67;;;;;;;;;;5067749;28;20020;-61
2023/04/03 07:10:59;;;;;;;2.88;2.65;;;;;;;;;;5072692;28;20021;-62
2023/04/03 07:13:26;;;;;;;2.63;2.42;;;;;;;;;;5075516;28;20106;-61
2023/04/03 07:15:52;;;;;;;2.80;2.60;;;;;;;;;;5072985;28;20032;-61
2023/04/03 07:18:18;;;;;;;3.25;2.80;;;;;;;;;;5073614;28;20123;-60
2023/04/03 07:20:47;;;;;;;3.88;2.35;;;;;;;;;;5073777;28;20131;-61
2023/04/03 07:23:13;;;;;;;3.13;2.80;;;;;;;;;;5073137;28;20107;-61
2023/04/03 07:25:46;;;;;;;2.75;2.55;;;;;;;;;;5073682;28;20119;-61
2023/04/03 07:28:13;;;;;;;3.08;2.78;;;;;;;;;;5072417;28;20055;-62
2023/04/03 07:30:50;;;;;;;2.50;2.30;;;;;;;;;;5073718;28;20327;-62
2023/04/03 07:33:21;;;;;;;2.63;2.42;;;;;;;;;;5073466;28;20051;-61
2023/04/03 07:35:47;;;;;;;2.58;2.38;;;;;;;;;;5072473;28;20380;-62
2023/04/03 07:38:13;;;;;;;3.35;2.72;;;;;;;;;;5073442;28;20028;-64
2023/04/03 07:40:49;;;;;;;2.53;2.33;;;;;;;;;;5073374;28;20488;-64
2023/04/03 07:43:17;;;;;;;2.78;2.58;;;;;;;;;;5090304;28;20024;-61
2023/04/03 07:45:43;;;;;;;2.65;2.45;;;;;;;;;;5093246;28;20032;-62
2023/04/03 07:48:10;;;;;;;2.40;2.20;;;;;;;;;;5093313;28;20039;-61
2023/04/03 07:50:36;;;;;;;3.15;2.50;;;;;;;;;;5078636;28;20127;-61
2023/04/03 07:53:02;;;;;;;2.63;2.42;;;;;;;;;;5071062;28;20107;-61
2023/04/03 07:55:28;;;;;;;2.60;2.40;;;;;;;;;;5071195;28;20032;-61
2023/04/03 07:57:55;;;;;;;4.55;2.78;;;;;;;;;;5069659;28;20032;-61
2023/04/03 08:00:21;;;;;;;3.33;2.65;;;;;;;;;;5072989;28;20020;-62
2023/04/03 08:02:50;;;;;;;3.00;2.80;;;;;;;;;;5073051;28;20033;-61
2023/04/03 08:05:17;;;;;;;3.40;3.10;;;;;;;;;;5072776;28;20028;-61
2023/04/03 08:07:43;;;;;;;4.78;2.83;;;;;;;;;;5072812;28;20534;-61
2023/04/03 08:10:09;;;;;;;3.03;2.78;;;;;;;;;;5072856;28;20091;-62
2023/04/03 08:12:36;;;;;;;4.00;3.30;;;;;;;;;;5072666;28;20028;-62
2023/04/03 08:15:03;;;;;;;4.30;2.90;;;;;;;;;;5076974;28;20499;-62
2023/04/03 08:17:36;;;;;;;4.28;2.90;;;;;;;;;;5092909;28;20089;-61
2023/04/03 08:20:04;;;;;;;5.85;3.90;;;;;;;;;;5079630;28;20028;-62
2023/04/03 08:22:30;;;;;;;5.97;3.00;;;;;;;;;;5071304;28;20379;-63
2023/04/03 08:24:59;;;;;;;7.78;3.05;;;;;;;;;;5069333;28;20028;-61
2023/04/03 08:27:29;;;;;;;3.07;2.77;;;;;;;;;;5072808;28;20093;-62
2023/04/03 08:29:56;;;;;;;5.80;3.28;;;;;;;;;;5065640;28;20277;-63
2023/04/03 08:32:22;;;;;;;6.18;3.40;;;;;;;;;;5069589;28;20028;-63
2023/04/03 08:34:48;;;;;;;3.53;3.13;;;;;;;;;;5069857;28;20040;-63
2023/04/03 08:37:15;;;;;;;3.55;3.13;;;;;;;;;;5071001;28;20073;-63
2023/04/03 08:39:42;;;;;;;5.60;3.08;;;;;;;;;;5070246;28;20540;-61
2023/04/03 08:42:51;;;;;;;5.40;3.22;;;;;;;;;;5072048;28;20024;-62
2023/04/03 08:45:25;;;;;;;4.57;3.50;;;;;;;;;;5071862;28;20067;-62
2023/04/03 08:48:07;;;;;;;4.82;3.03;;;;;;;;;;5071992;28;20029;-62
2023/04/03 08:50:41;;;;;;;6.53;3.50;;;;;;;;;;5070047;28;20458;-63
2023/04/03 08:53:26;;;;;;;3.58;3.28;;;;;;;;;;5071768;28;20063;-63
2023/04/03 08:55:54;;;;;;;4.25;3.15;;;;;;;;;;5071681;28;20020;-63
2023/04/03 08:58:23;;;;;;;3.72;3.20;;;;;;;;;;5086836;28;20024;-63
2023/04/03 09:00:50;;;;;;;3.55;3.25;;;;;;;;;;5091605;28;20024;-63
2023/04/03 09:03:19;;;;;;;5.75;3.03;;;;;;;;;;5091747;28;20060;-63
2023/04/03 09:06:08;;;;;;;3.22;2.92;;;;;;;;;;5087580;28;20060;-62
2023/04/03 09:08:49;;;;;;;3.17;2.88;;;;;;;;;;5078756;28;20059;-64
2023/04/03 09:11:50;;;;;;;3.00;2.80;;;;;;;;;;5087541;28;20412;-61
2023/04/03 09:14:25;;;;;;;3.17;2.88;;;;;;;;;;5066874;28;20044;-62
2023/04/03 09:16:56;;;;;;;3.35;2.95;;;;;;;;;;5071471;28;20029;-62
2023/04/03 09:19:33;;;;;;;;;;;;;;;;;;5071699;28;20073;-63
2023/04/03 09:22:31;;;;;;;4.45;3.40;;;;;;;;;;5071230;28;19916;-62
2023/04/03 09:25:15;;;;;;;6.90;3.25;;;;;;;;;;5066205;28;20605;-63
2023/04/03 09:27:41;;;;;;;6.00;3.10;;;;;;;;;;5071236;28;20563;-63
2023/04/03 09:30:17;;;;;;;7.20;3.38;;;;;;;;;;5069594;28;20044;-63
2023/04/03 09:32:47;;;;;;;5.70;3.45;;;;;;;;;;5070963;28;20031;-62
2023/04/03 09:35:33;;;;;;;3.92;3.30;;;;;;;;;;5070994;28;20039;-63
2023/04/03 09:38:20;;;;;;;3.08;2.78;;;;;;;;;;5070909;28;20029;-62
2023/04/03 09:40:49;;;;;;;3.35;3.05;;;;;;;;;;5070808;28;20540;-63
2023/04/03 09:43:31;;;;;;;3.50;3.20;;;;;;;;;;5069940;28;20702;-62
2023/04/03 09:46:26;;;;;;;5.13;3.03;;;;;;;;;;5070902;28;20081;-64
2023/04/03 09:49:03;;;;;;;6.35;2.85;;;;;;;;;;5075551;28;20479;-65
2023/04/03 09:51:29;;;;;;;3.63;3.30;;;;;;;;;;5070576;28;20455;-63
2023/04/03 09:53:55;;;;;;;3.88;2.97;;;;;;;;;;5071701;28;20028;-64
2023/04/03 09:56:23;;;;;;;4.47;3.00;;;;;;;;;;5070973;28;20024;-62
2023/04/03 09:58:58;;;;;;;3.50;3.20;;;;;;;;;;5068162;28;20115;-61
2023/04/03 10:01:33;;;;;;;4.07;2.85;;;;;;;;;;5089701;28;20032;-61
2023/04/03 10:04:17;;;;;;;3.97;3.30;;;;;;;;;;5091121;28;20023;-63
2023/04/03 10:06:52;;;;;;;4.78;3.50;;;;;;;;;;5090721;28;20058;-62
2023/04/03 10:09:24;;;;;;;4.80;3.72;;;;;;;;;;5090976;28;20160;-62
2023/04/03 10:12:09;;;;;;;4.75;3.20;;;;;;;;;;5089458;28;20420;-62
2023/04/03 10:14:41;;;;;;;5.43;3.60;;;;;;;;;;5090809;28;20487;-62
2023/04/03 10:17:25;;;;;;;4.70;3.63;;;;;;;;;;5085595;28;20112;-64
2023/04/03 10:20:01;;;;;;;6.63;3.63;;;;;;;;;;5068450;28;20035;-65
2023/04/03 10:22:45;;;;;;;3.65;3.33;;;;;;;;;;5070473;28;20515;-64
2023/04/03 10:25:28;;;;;;;3.88;3.40;;;;;;;;;;5070309;28;20633;-61
2023/04/03 10:28:07;;;;;;;8.85;3.47;;;;;;;;;;5069249;28;20037;-62
2023/04/03 10:30:55;;;;;;;5.32;3.40;;;;;;;;;;5068702;28;20040;-61
2023/04/03 10:33:31;;;;;;;3.35;3.00;;;;;;;;;;5070322;28;20465;-63
2023/04/03 10:36:17;;;;;;;3.67;3.20;;;;;;;;;;5069041;28;20036;-63
2023/04/03 10:39:01;;;;;;;3.38;2.88;;;;;;;;;;5070351;28;20024;-64
2023/04/03 10:41:53;;;;;;;3.72;3.42;;;;;;;;;;5070271;28;20031;-62
2023/04/03 10:44:42;;;;;;;3.50;3.20;;;;;;;;;;5070166;28;20165;-61
2023/04/03 10:47:24;;;;;;;4.90;3.58;;;;;;;;;;5070198;28;20032;-63
2023/04/03 10:50:04;;;;;;;3.90;3.30;;;;;;;;;;5069367;28;20059;-65
2023/04/03 10:52:41;;;;;;;4.07;3.35;;;;;;;;;;5070167;28;20029;-62
2023/04/03 10:55:25;;;;;;;4.10;3.70;;;;;;;;;;5070037;28;20021;-64
2023/04/03 10:57:55;;;;;;;3.60;3.30;;;;;;;;;;5070231;28;20063;-61
2023/04/03 11:00:26;;;;;;;4.30;3.50;;;;;;;;;;5067756;28;20028;-60
2023/04/03 11:02:56;;;;;;;4.03;3.08;;;;;;;;;;5067471;28;20051;-61
2023/04/03 11:05:28;;;;;;;;;;;;;;;;;;5070558;28;20153;-61
2023/04/03 11:07:57;;;;;;;4.28;3.17;;;;;;;;;;5070222;28;20014;-61
2023/04/03 11:10:48;;;;;;;7.00;3.13;;;;;;;;;;5070426;28;20021;-62
2023/04/03 11:13:26;;;;;;;4.47;3.47;;;;;;;;;;5070158;28;20051;-63
2023/04/03 11:15:55;;;;;;;5.00;4.03;;;;;;;;;;5069874;28;20024;-61
2023/04/03 11:19:14;;;;;;;8.32;4.50;;;;;;;;;;5068613;28;20029;-62
2023/04/03 11:21:52;;;;;;;8.10;3.90;;;;;;;;;;5027154;28;20079;-65
2023/04/03 11:24:28;;;;;;;5.70;4.07;;;;;;;;;;5027371;28;20052;-64
2023/04/03 11:26:59;;;;;;;12.55;4.47;;;;;;;;;;5027672;28;20060;-64
2023/04/03 11:29:31;;;;;;;7.28;4.55;;;;;;;;;;5037267;28;20478;-65
2023/04/03 11:32:42;;;;;;;5.15;3.90;;;;;;;;;;5081990;28;20437;-65
2023/04/03 11:35:09;;;;;;;8.07;4.40;;;;;;;;;;5049249;28;20032;-63
2023/04/03 11:37:39;;;;;;;7.18;4.20;;;;;;;;;;5073298;28;20041;-64
2023/04/03 11:40:23;;;;;;;5.43;4.20;;;;;;;;;;5073488;28;20032;-64
2023/04/03 11:42:50;;;;;;;10.50;4.10;;;;;;;;;;5073382;28;20025;-65
2023/04/03 11:45:23;;;;;;;5.65;4.40;;;;;;;;;;5072762;28;20036;-63
2023/04/03 11:47:51;;;;;;;5.53;4.05;;;;;;;;;;5073064;28;20035;-63
2023/04/03 11:50:35;;;;;;;6.22;3.97;;;;;;;;;;5072462;28;20051;-63
2023/04/03 11:53:34;;;;;;;6.72;3.80;;;;;;;;;;5067240;28;20139;-63
2023/04/03 11:56:04;;;;;;;4.30;3.90;;;;;;;;;;5061214;28;20036;-64
2023/04/03 11:58:34;;;;;;;8.68;3.85;;;;;;;;;;5062809;28;20054;-63
2023/04/03 12:01:28;;;;;;;4.18;3.78;;;;;;;;;;5063978;28;20112;-63
2023/04/03 12:04:06;;;;;;;6.60;4.00;;;;;;;;;;5063016;28;20028;-63
2023/04/03 12:06:32;;;;;;;7.07;3.88;;;;;;;;;;5078204;28;20048;-63
2023/04/03 12:09:23;;;;;;;4.82;3.70;;;;;;;;;;5060193;28;20056;-63
2023/04/03 12:11:51;;;;;;;4.75;3.40;;;;;;;;;;5062346;28;20028;-63
2023/04/03 12:14:25;;;;;;;6.85;3.30;;;;;;;;;;5061315;28;20349;-64
2023/04/03 12:16:53;;;;;;;3.55;3.25;;;;;;;;;;5065326;28;20035;-63
2023/04/03 12:19:27;;;;;;;4.22;3.35;;;;;;;;;;5072400;28;20028;-64
2023/04/03 12:21:59;;;;;;;4.78;3.25;;;;;;;;;;5072493;28;20028;-63
2023/04/03 12:24:35;;;;;;;5.25;3.10;;;;;;;;;;5072106;28;20412;-63
2023/04/03 12:27:13;;;;;;;3.15;2.85;;;;;;;;;;5065032;28;20102;-65
2023/04/03 12:29:52;;;;;;;7.25;3.00;;;;;;;;;;5072448;28;20040;-64
2023/04/03 12:32:40;;;;;;;3.40;2.95;;;;;;;;;;5072306;28;20069;-64
2023/04/03 12:35:40;;;;;;;5.25;2.70;;;;;;;;;;5072286;28;20480;-62
2023/04/03 12:38:34;;;;;;;2.95;2.65;;;;;;;;;;5072209;28;20047;-63
2023/04/03 12:41:02;;;;;;;4.90;2.88;;;;;;;;;;5069555;28;20078;-62
2023/04/03 12:43:46;;;;;;;4.90;2.80;;;;;;;;;;5071618;28;20032;-64
2023/04/03 12:46:16;;;;;;;3.75;2.92;;;;;;;;;;5071971;28;20028;-65
2023/04/03 12:48:45;;;;;;;3.22;2.60;;;;;;;;;;5071772;28;20115;-66
2023/04/03 12:51:15;;;;;;;3.67;2.60;;;;;;;;;;5071828;28;20036;-62
2023/04/03 12:53:43;;;;;;;2.92;2.67;;;;;;;;;;5071902;28;20496;-64
2023/04/03 12:56:26;;;;;;;2.80;2.60;;;;;;;;;;5071461;28;20041;-65
2023/04/03 12:59:13;;;;;;;3.85;2.58;;;;;;;;;;5071536;28;20041;-64
2023/04/03 13:01:39;;;;;;;2.88;2.63;;;;;;;;;;5071700;28;20029;-64
2023/04/03 13:04:05;;;;;;;4.40;2.60;;;;;;;;;;5071421;28;20464;-62
2023/04/03 13:06:37;;;;;;;3.00;2.53;;;;;;;;;;5071583;28;20138;-64
2023/04/03 13:09:04;;;;;;;5.13;2.42;;;;;;;;;;5071410;28;20033;-61
2023/04/03 13:11:41;;;;;;;2.83;2.55;;;;;;;;;;5071348;28;20461;-63
2023/04/03 13:14:22;;;;;;;2.50;2.30;;;;;;;;;;5071734;28;20112;-62
2023/04/03 13:17:00;;;;;;;2.55;2.33;;;;;;;;;;5052465;28;20037;-62
2023/04/03 13:19:27;;;;;;;4.40;2.22;;;;;;;;;;5051461;28;20039;-64
2023/04/03 13:22:00;;;;;;;4.00;2.35;;;;;;;;;;5051303;28;20079;-63
2023/04/03 13:24:29;;;;;;;2.63;2.30;;;;;;;;;;5050254;28;20024;-66
2023/04/03 13:26:55;;;;;;;3.42;2.40;;;;;;;;;;5051453;28;20078;-62
2023/04/03 13:29:25;;;;;;;3.05;2.58;;;;;;;;;;5051265;28;20040;-62
2023/04/03 13:31:54;;;;;;;2.80;2.58;;;;;;;;;;5051063;28;20657;-64
2023/04/03 13:34:21;;;;;;;2.50;2.30;;;;;;;;;;5051151;28;20029;-63
2023/04/03 13:36:59;;;;;;;4.43;2.38;;;;;;;;;;5051066;28;20138;-63
2023/04/03 13:39:28;;;;;;;4.80;2.47;;;;;;;;;;5050925;28;20061;-65
2023/04/03 13:41:57;;;;;;;3.10;2.80;;;;;;;;;;5051182;28;20436;-63
2023/04/03 13:44:22;;;;;;;3.72;2.50;;;;;;;;;;5050685;28;20033;-65
2023/04/03 13:47:11;;;;;;;3.00;2.60;;;;;;;;;;5050645;28;20604;-65
2023/04/03 13:49:40;;;;;;;3.88;2.75;;;;;;;;;;5044532;28;20145;-63
2023/04/03 13:52:35;;;;;;;3.87;2.67;;;;;;;;;;5051024;28;20041;-63
2023/04/03 13:55:16;;;;;;;2.72;2.30;;;;;;;;;;5049806;28;20356;-62
2023/04/03 13:58:03;;;;;;;4.45;2.75;;;;;;;;;;5050956;28;20480;-63
2023/04/03 14:00:37;;;;;;;4.35;2.60;;;;;;;;;;5050983;28;20029;-63
2023/04/03 14:03:13;;;;;;;2.42;2.22;;;;;;;;;;5051056;28;20033;-62
2023/04/03 14:05:38;;;;;;;2.60;2.35;;;;;;;;;;5050677;28;20592;-63
2023/04/03 14:08:04;;;;;;;5.03;2.40;;;;;;;;;;5050667;28;20029;-62
2023/04/03 14:10:30;;;;;;;3.53;2.00;;;;;;;;;;5050961;28;20086;-63
2023/04/03 14:12:56;;;;;;;3.63;2.40;;;;;;;;;;5050753;28;20024;-64
2023/04/03 14:15:24;;;;;;;2.25;1.95;;;;;;;;;;5050603;28;20036;-63
2023/04/03 14:17:55;;;;;;;2.70;2.10;;;;;;;;;;5050562;28;20033;-63
2023/04/03 14:20:24;;;;;;;3.78;2.10;;;;;;;;;;5050541;28;20032;-63
2023/04/03 14:22:51;;;;;;;3.27;2.17;;;;;;;;;;5050460;28;20516;-62
2023/04/03 14:25:17;;;;;;;3.00;2.20;;;;;;;;;;5050609;28;20027;-62
2023/04/03 14:27:48;;;;;;;2.92;2.22;;;;;;;;;;5050247;28;20036;-62
2023/04/03 14:30:29;;;;;;;3.92;2.22;;;;;;;;;;5050545;28;20025;-63
2023/04/03 14:32:55;;;;;;;2.05;1.85;;;;;;;;;;5050378;28;20025;-64
2023/04/03 14:35:21;;;;;;;2.63;1.98;;;;;;;;;;5050524;28;20022;-63
2023/04/03 14:37:52;;;;;;;2.45;2.00;;;;;;;;;;5050613;28;20373;-63
2023/04/03 14:40:22;;;;;;;2.22;2.00;;;;;;;;;;5050603;28;20025;-63
2023/04/03 14:42:48;;;;;;;2.05;1.95;;;;;;;;;;5050165;28;20463;-65
2023/04/03 14:45:15;;;;;;;2.90;2.10;;;;;;;;;;5050439;28;20039;-62
2023/04/03 14:47:52;;;;;;;2.67;2.47;;;;;;;;;;5050386;28;20071;-62
2023/04/03 14:50:26;;;;;;;3.25;2.00;;;;;;;;;;5049714;28;20049;-64
2023/04/03 14:52:55;;;;;;;2.92;2.17;;;;;;;;;;5050334;28;20130;-61
2023/04/03 14:55:23;;;;;;;4.32;2.10;;;;;;;;;;5050279;28;20033;-64
2023/04/03 14:57:49;;;;;;;1.85;1.70;;;;;;;;;;5050209;28;20033;-63
2023/04/03 15:00:17;;;;;;;5.13;2.20;;;;;;;;;;5050165;28;20025;-64
2023/04/03 15:02:45;;;;;;;5.10;2.20;;;;;;;;;;5050129;28;20035;-63